sensor_id;sensor_type;location;lat;lon;timestamp;pressure;altitude;pressure_sealevel;temperature;humidity
46045;BME280;31781;54.094;13.428;2023-09-07T00:00:58;102650.38;;;19.50;74.95
46045;BME280;31781;54.094;13.428;2023-09-07T00:03:06;102644.84;;;19.50;75.25
46045;BME280;31781;54.094;13.428;2023-09-07T00:05:09;102648.22;;;19.52;75.33
46045;BME280;31781;54.094;13.428;2023-09-07T00:07:11;102648.03;;;19.54;75.11
46045;BME280;31781;54.094;13.428;2023-09-07T00:09:13;102646.09;;;19.54;75.81
46045;BME280;31781;54.094;13.428;2023-09-07T00:11:31;102642.25;;;19.55;75.03
46045;BME280;31781;54.094;13.428;2023-09-07T00:13:48;102634.63;;;19.57;75.26
46045;BME280;31781;54.094;13.428;2023-09-07T00:15:59;102637.38;;;19.57;75.60
46045;BME280;31781;54.094;13.428;2023-09-07T00:18:01;102641.19;;;19.56;75.75
46045;BME280;31781;54.094;13.428;2023-09-07T00:20:04;102648.41;;;19.57;76.24
46045;BME280;31781;54.094;13.428;2023-09-07T00:22:08;102640.97;;;19.58;75.69
46045;BME280;31781;54.094;13.428;2023-09-07T00:24:34;102644.16;;;19.61;74.66
46045;BME280;31781;54.094;13.428;2023-09-07T00:26:50;102643.28;;;19.61;75.81
46045;BME280;31781;54.094;13.428;2023-09-07T00:28:57;102641.38;;;19.61;75.45
46045;BME280;31781;54.094;13.428;2023-09-07T00:30:59;102641.38;;;19.61;75.05
46045;BME280;31781;54.094;13.428;2023-09-07T00:33:05;102639.47;;;19.62;75.62
46045;BME280;31781;54.094;13.428;2023-09-07T00:35:20;102638.38;;;19.63;75.42
46045;BME280;31781;54.094;13.428;2023-09-07T00:40:28;102644.75;;;19.63;74.48
46045;BME280;31781;54.094;13.428;2023-09-07T00:42:36;102652.19;;;19.63;75.09
46045;BME280;31781;54.094;13.428;2023-09-07T00:44:38;102646.66;;;19.63;75.26
46045;BME280;31781;54.094;13.428;2023-09-07T00:46:54;102648.56;;;19.62;75.53
46045;BME280;31781;54.094;13.428;2023-09-07T00:49:09;102658.56;;;19.63;75.81
46045;BME280;31781;54.094;13.428;2023-09-07T00:53:09;102653.03;;;19.63;75.16
46045;BME280;31781;54.094;13.428;2023-09-07T00:54:06;102651.34;;;19.62;75.21
46045;BME280;31781;54.094;13.428;2023-09-07T01:12:56;102643.09;;;19.56;75.08
46045;BME280;31781;54.094;13.428;2023-09-07T01:15:15;102648.63;;;19.56;75.40
46045;BME280;31781;54.094;13.428;2023-09-07T01:17:32;102640.59;;;19.54;75.65
46045;BME280;31781;54.094;13.428;2023-09-07T01:20:12;102637.13;;;19.59;73.13
46045;BME280;31781;54.094;13.428;2023-09-07T01:22:29;102639.06;;;19.58;75.94
46045;BME280;31781;54.094;13.428;2023-09-07T01:24:33;102637.38;;;19.57;76.26
46045;BME280;31781;54.094;13.428;2023-09-07T01:26:49;102639.91;;;19.59;76.00
46045;BME280;31781;54.094;13.428;2023-09-07T01:29:02;102642.44;;;19.60;76.24
46045;BME280;31781;54.094;13.428;2023-09-07T01:31:04;102641.59;;;19.60;76.08
46045;BME280;31781;54.094;13.428;2023-09-07T01:33:21;102640.53;;;19.61;76.60
46045;BME280;31781;54.094;13.428;2023-09-07T01:35:27;102638.63;;;19.61;75.98
46045;BME280;31781;54.094;13.428;2023-09-07T01:37:31;102637.78;;;19.61;76.29
46045;BME280;31781;54.094;13.428;2023-09-07T01:39:32;102635.88;;;19.61;76.50
46045;BME280;31781;54.094;13.428;2023-09-07T01:41:38;102632.25;;;19.61;75.89
46045;BME280;31781;54.094;13.428;2023-09-07T01:43:42;102633.72;;;19.63;76.19
46045;BME280;31781;54.094;13.428;2023-09-07T01:45:58;102624.56;;;19.63;75.95
46045;BME280;31781;54.094;13.428;2023-09-07T01:48:14;102629.88;;;19.64;75.65
46045;BME280;31781;54.094;13.428;2023-09-07T01:50:16;102632.66;;;19.64;76.14
46045;BME280;31781;54.094;13.428;2023-09-07T01:52:20;102622.66;;;19.63;76.52
46045;BME280;31781;54.094;13.428;2023-09-07T01:57:01;102625.81;;;19.67;75.21
46045;BME280;31781;54.094;13.428;2023-09-07T01:59:16;102630.50;;;19.66;76.49
46045;BME280;31781;54.094;13.428;2023-09-07T02:01:23;102627.53;;;19.68;76.67
46045;BME280;31781;54.094;13.428;2023-09-07T02:03:28;102626.66;;;19.67;76.94
46045;BME280;31781;54.094;13.428;2023-09-07T02:05:47;102634.50;;;19.70;76.43
46045;BME280;31781;54.094;13.428;2023-09-07T02:07:49;102626.47;;;19.69;76.74
46045;BME280;31781;54.094;13.428;2023-09-07T02:10:08;102630.47;;;19.73;74.25
46045;BME280;31781;54.094;13.428;2023-09-07T02:12:39;102625.16;;;19.71;76.34
46045;BME280;31781;54.094;13.428;2023-09-07T02:15:11;102627.06;;;19.71;76.70
46045;BME280;31781;54.094;13.428;2023-09-07T02:17:25;102628.13;;;19.70;76.70
46045;BME280;31781;54.094;13.428;2023-09-07T02:19:27;102624.31;;;19.71;76.62
46045;BME280;31781;54.094;13.428;2023-09-07T02:21:29;102628.97;;;19.70;76.24
46045;BME280;31781;54.094;13.428;2023-09-07T02:23:33;102631.53;;;19.72;76.61
46045;BME280;31781;54.094;13.428;2023-09-07T02:25:38;102630.47;;;19.73;76.59
46045;BME280;31781;54.094;13.428;2023-09-07T02:27:44;102630.47;;;19.73;76.67
46045;BME280;31781;54.094;13.428;2023-09-07T02:30:06;102628.31;;;19.75;75.58
46045;BME280;31781;54.094;13.428;2023-09-07T02:32:10;102627.72;;;19.73;76.68
46045;BME280;31781;54.094;13.428;2023-09-07T02:34:11;102629.16;;;19.75;76.58
46045;BME280;31781;54.094;13.428;2023-09-07T02:36:15;102624.50;;;19.76;76.17
46045;BME280;31781;54.094;13.428;2023-09-07T02:38:19;102628.09;;;19.76;76.83
46045;BME280;31781;54.094;13.428;2023-09-07T02:40:30;102630.00;;;19.76;76.38
46045;BME280;31781;54.094;13.428;2023-09-07T02:46:13;102627.66;;;19.79;74.17
46045;BME280;31781;54.094;13.428;2023-09-07T02:54:18;102636.38;;;19.76;73.65
46045;BME280;31781;54.094;13.428;2023-09-07T02:56:22;102634.06;;;19.73;76.42
46045;BME280;31781;54.094;13.428;2023-09-07T02:58:52;102634.06;;;19.73;76.83
46045;BME280;31781;54.094;13.428;2023-09-07T03:00:56;102639.56;;;19.73;76.46
46045;BME280;31781;54.094;13.428;2023-09-07T03:02:59;102638.75;;;19.73;76.68
46045;BME280;31781;54.094;13.428;2023-09-07T03:05:01;102633.22;;;19.73;76.70
46045;BME280;31781;54.094;13.428;2023-09-07T03:07:03;102636.00;;;19.73;77.37
46045;BME280;31781;54.094;13.428;2023-09-07T03:09:05;102638.75;;;19.73;77.15
46045;BME280;31781;54.094;13.428;2023-09-07T03:11:11;102636.81;;;19.73;76.95
46045;BME280;31781;54.094;13.428;2023-09-07T03:13:12;102644.03;;;19.74;76.80
46045;BME280;31781;54.094;13.428;2023-09-07T03:15:16;102636.59;;;19.75;76.67
46045;BME280;31781;54.094;13.428;2023-09-07T03:17:19;102629.16;;;19.75;76.93
46045;BME280;31781;54.094;13.428;2023-09-07T03:19:35;102640.22;;;19.75;77.25
46045;BME280;31781;54.094;13.428;2023-09-07T03:21:39;102642.13;;;19.75;76.82
46045;BME280;31781;54.094;13.428;2023-09-07T03:23:54;102638.50;;;19.74;75.88
46045;BME280;31781;54.094;13.428;2023-09-07T03:26:11;102643.19;;;19.74;76.86
46045;BME280;31781;54.094;13.428;2023-09-07T03:28:41;102651.25;;;19.75;74.54
46045;BME280;31781;54.094;13.428;2023-09-07T03:30:58;102645.34;;;19.72;76.44
46045;BME280;31781;54.094;13.428;2023-09-07T03:36:00;102647.25;;;19.71;76.67
46045;BME280;31781;54.094;13.428;2023-09-07T03:38:08;102651.06;;;19.70;76.45
46045;BME280;31781;54.094;13.428;2023-09-07T03:40:28;102647.47;;;19.70;76.79
46045;BME280;31781;54.094;13.428;2023-09-07T03:42:49;102653.84;;;19.70;75.61
46045;BME280;31781;54.094;13.428;2023-09-07T03:44:51;102643.88;;;19.69;76.79
46045;BME280;31781;54.094;13.428;2023-09-07T03:47:03;102640.88;;;19.71;75.24
46045;BME280;31781;54.094;13.428;2023-09-07T03:49:21;102640.88;;;19.71;76.52
46045;BME280;31781;54.094;13.428;2023-09-07T03:51:47;102648.94;;;19.72;75.30
46045;BME280;31781;54.094;13.428;2023-09-07T03:54:10;102639.81;;;19.72;76.54
46045;BME280;31781;54.094;13.428;2023-09-07T03:56:30;102651.94;;;19.71;76.90
46045;BME280;31781;54.094;13.428;2023-09-07T03:58:33;102648.31;;;19.70;76.83
46045;BME280;31781;54.094;13.428;2023-09-07T04:00:49;102646.66;;;19.69;76.92
46045;BME280;31781;54.094;13.428;2023-09-07T04:03:06;102654.69;;;19.71;76.84
46045;BME280;31781;54.094;13.428;2023-09-07T04:05:21;102655.53;;;19.71;77.02
46045;BME280;31781;54.094;13.428;2023-09-07T04:07:26;102650.00;;;19.71;76.52
46045;BME280;31781;54.094;13.428;2023-09-07T04:09:42;102656.38;;;19.72;76.79
46045;BME280;31781;54.094;13.428;2023-09-07T04:12:01;102650.88;;;19.72;76.56
46045;BME280;31781;54.094;13.428;2023-09-07T04:14:17;102648.94;;;19.72;76.89
46045;BME280;31781;54.094;13.428;2023-09-07T04:16:33;102648.09;;;19.72;77.33
46045;BME280;31781;54.094;13.428;2023-09-07T04:18:49;102644.28;;;19.73;77.27
46045;BME280;31781;54.094;13.428;2023-09-07T04:21:05;102642.56;;;19.72;76.79
46045;BME280;31781;54.094;13.428;2023-09-07T04:23:09;102646.19;;;19.72;76.96
46045;BME280;31781;54.094;13.428;2023-09-07T04:25:13;102657.25;;;19.72;77.06
46045;BME280;31781;54.094;13.428;2023-09-07T04:27:15;102652.56;;;19.73;76.64
46045;BME280;31781;54.094;13.428;2023-09-07T04:29:24;102649.81;;;19.73;77.28
46045;BME280;31781;54.094;13.428;2023-09-07T04:31:27;102644.28;;;19.73;76.61
46045;BME280;31781;54.094;13.428;2023-09-07T04:33:30;102653.63;;;19.72;77.06
46045;BME280;31781;54.094;13.428;2023-09-07T04:35:39;102657.84;;;19.74;75.76
46045;BME280;31781;54.094;13.428;2023-09-07T04:37:41;102651.47;;;19.74;76.99
46045;BME280;31781;54.094;13.428;2023-09-07T04:39:50;102661.47;;;19.75;76.29
46045;BME280;31781;54.094;13.428;2023-09-07T04:42:05;102660.41;;;19.76;77.36
46045;BME280;31781;54.094;13.428;2023-09-07T04:44:07;102657.41;;;19.77;76.76
46045;BME280;31781;54.094;13.428;2023-09-07T04:46:15;102661.00;;;19.78;76.92
46045;BME280;31781;54.094;13.428;2023-09-07T04:48:19;102668.22;;;19.79;76.91
46045;BME280;31781;54.094;13.428;2023-09-07T04:50:34;102668.22;;;19.79;77.00
46045;BME280;31781;54.094;13.428;2023-09-07T04:52:57;102668.03;;;19.80;75.82
46045;BME280;31781;54.094;13.428;2023-09-07T04:55:28;102671.59;;;19.81;75.23
46045;BME280;31781;54.094;13.428;2023-09-07T04:57:53;102679.28;;;19.79;76.08
46045;BME280;31781;54.094;13.428;2023-09-07T05:00:11;102679.50;;;19.77;77.13
46045;BME280;31781;54.094;13.428;2023-09-07T05:02:26;102676.72;;;19.77;76.59
46045;BME280;31781;54.094;13.428;2023-09-07T05:04:50;102676.53;;;19.79;75.40
46045;BME280;31781;54.094;13.428;2023-09-07T05:07:50;102681.59;;;19.82;74.50
46045;BME280;31781;54.094;13.428;2023-09-07T05:10:10;102682.03;;;19.79;76.45
46045;BME280;31781;54.094;13.428;2023-09-07T05:23:37;102680.75;;;19.81;75.47
46045;BME280;31781;54.094;13.428;2023-09-07T05:25:54;102681.84;;;19.80;76.42
46045;BME280;31781;54.094;13.428;2023-09-07T05:28:14;102686.25;;;19.81;76.26
46045;BME280;31781;54.094;13.428;2023-09-07T05:30:27;102681.59;;;19.82;76.96
46045;BME280;31781;54.094;13.428;2023-09-07T05:32:52;102676.91;;;19.82;75.38
46045;BME280;31781;54.094;13.428;2023-09-07T05:35:04;102679.47;;;19.84;77.11
46045;BME280;31781;54.094;13.428;2023-09-07T05:37:25;102682.84;;;19.86;75.99
46045;BME280;31781;54.094;13.428;2023-09-07T05:59:00;102687.66;;;19.97;76.53
46045;BME280;31781;54.094;13.428;2023-09-07T06:01:02;102689.34;;;19.98;76.44
46045;BME280;31781;54.094;13.428;2023-09-07T06:03:45;102694.22;;;20.03;74.73
46045;BME280;31781;54.094;13.428;2023-09-07T06:05:48;102691.66;;;20.01;76.44
46045;BME280;31781;54.094;13.428;2023-09-07T06:07:53;102691.44;;;20.03;76.37
46045;BME280;31781;54.094;13.428;2023-09-07T06:10:14;102697.13;;;20.08;76.00
46045;BME280;31781;54.094;13.428;2023-09-07T06:12:29;102693.91;;;20.11;76.54
46045;BME280;31781;54.094;13.428;2023-09-07T06:22:52;102699.81;;;20.14;76.46
46045;BME280;31781;54.094;13.428;2023-09-07T06:24:53;102701.84;;;20.25;76.94
46045;BME280;31781;54.094;13.428;2023-09-07T06:26:57;102708.19;;;20.32;76.56
46045;BME280;31781;54.094;13.428;2023-09-07T06:29:00;102709.22;;;20.38;76.10
46045;BME280;31781;54.094;13.428;2023-09-07T06:31:02;102701.53;;;20.40;75.88
46045;BME280;31781;54.094;13.428;2023-09-07T06:33:05;102705.34;;;20.46;75.64
46045;BME280;31781;54.094;13.428;2023-09-07T06:35:08;102710.41;;;20.49;75.01
46045;BME280;31781;54.094;13.428;2023-09-07T06:37:11;102718.03;;;20.53;75.74
46045;BME280;31781;54.094;13.428;2023-09-07T06:39:16;102710.13;;;20.57;75.11
46045;BME280;31781;54.094;13.428;2023-09-07T06:41:18;102712.41;;;20.60;75.11
46045;BME280;31781;54.094;13.428;2023-09-07T06:43:20;102709.19;;;20.63;74.98
46045;BME280;31781;54.094;13.428;2023-09-07T06:45:23;102713.44;;;20.65;74.58
46045;BME280;31781;54.094;13.428;2023-09-07T06:47:25;102712.75;;;20.70;74.64
46045;BME280;31781;54.094;13.428;2023-09-07T06:49:31;102705.69;;;20.74;74.79
46045;BME280;31781;54.094;13.428;2023-09-07T06:51:47;102712.44;;;20.78;74.48
46045;BME280;31781;54.094;13.428;2023-09-07T06:53:57;102710.91;;;20.82;74.69
46045;BME280;31781;54.094;13.428;2023-09-07T06:56:03;102706.41;;;20.87;73.44
46045;BME280;31781;54.094;13.428;2023-09-07T06:58:23;102712.91;;;20.93;73.95
46045;BME280;31781;54.094;13.428;2023-09-07T07:00:26;102710.22;;;21.05;74.38
46045;BME280;31781;54.094;13.428;2023-09-07T07:02:30;102712.47;;;21.14;73.87
46045;BME280;31781;54.094;13.428;2023-09-07T07:04:46;102712.31;;;21.27;73.71
46045;BME280;31781;54.094;13.428;2023-09-07T07:06:55;102715.59;;;21.36;72.57
46045;BME280;31781;54.094;13.428;2023-09-07T07:08:59;102714.06;;;21.40;72.76
46045;BME280;31781;54.094;13.428;2023-09-07T07:11:02;102723.50;;;21.51;72.59
46045;BME280;31781;54.094;13.428;2023-09-07T07:13:04;102714.66;;;21.60;71.97
46045;BME280;31781;54.094;13.428;2023-09-07T07:15:07;102715.78;;;21.71;72.27
46045;BME280;31781;54.094;13.428;2023-09-07T07:17:09;102716.13;;;21.74;71.46
46045;BME280;31781;54.094;13.428;2023-09-07T07:19:12;102719.66;;;21.81;71.83
46045;BME280;31781;54.094;13.428;2023-09-07T07:21:14;102718.28;;;21.91;71.75
46045;BME280;31781;54.094;13.428;2023-09-07T07:23:17;102719.13;;;22.03;71.59
46045;BME280;31781;54.094;13.428;2023-09-07T07:25:18;102724.13;;;22.12;71.94
46045;BME280;31781;54.094;13.428;2023-09-07T07:27:22;102722.81;;;22.26;71.24
46045;BME280;31781;54.094;13.428;2023-09-07T07:29:26;102732.00;;;22.39;71.32
46045;BME280;31781;54.094;13.428;2023-09-07T07:31:28;102727.28;;;22.51;71.13
46045;BME280;31781;54.094;13.428;2023-09-07T07:33:30;102725.38;;;22.63;70.82
46045;BME280;31781;54.094;13.428;2023-09-07T07:35:37;102724.06;;;22.77;70.29
46045;BME280;31781;54.094;13.428;2023-09-07T07:37:39;102724.91;;;22.89;70.04
46045;BME280;31781;54.094;13.428;2023-09-07T07:39:43;102732.97;;;23.02;69.45
46045;BME280;31781;54.094;13.428;2023-09-07T07:41:45;102727.72;;;23.17;69.80
46045;BME280;31781;54.094;13.428;2023-09-07T07:43:49;102721.31;;;23.28;68.78
46045;BME280;31781;54.094;13.428;2023-09-07T07:45:53;102727.91;;;23.39;68.21
46045;BME280;31781;54.094;13.428;2023-09-07T07:47:56;102722.13;;;23.52;67.81
46045;BME280;31781;54.094;13.428;2023-09-07T07:49:58;102720.38;;;23.63;67.41
46045;BME280;31781;54.094;13.428;2023-09-07T07:52:00;102719.25;;;23.75;67.59
46045;BME280;31781;54.094;13.428;2023-09-07T07:54:03;102716.03;;;23.84;66.62
46045;BME280;31781;54.094;13.428;2023-09-07T07:56:05;102719.59;;;23.96;66.35
46045;BME280;31781;54.094;13.428;2023-09-07T07:58:08;102720.63;;;24.06;66.20
46045;BME280;31781;54.094;13.428;2023-09-07T08:00:13;102721.44;;;24.18;66.48
46045;BME280;31781;54.094;13.428;2023-09-07T08:02:15;102718.22;;;24.27;65.55
46045;BME280;31781;54.094;13.428;2023-09-07T08:04:17;102720.09;;;24.38;65.33
46045;BME280;31781;54.094;13.428;2023-09-07T08:06:20;102721.66;;;24.50;64.69
46045;BME280;31781;54.094;13.428;2023-09-07T08:08:22;102719.91;;;24.61;65.14
46045;BME280;31781;54.094;13.428;2023-09-07T08:10:24;102722.56;;;24.72;64.91
46045;BME280;31781;54.094;13.428;2023-09-07T08:12:26;102725.28;;;24.84;63.57
46045;BME280;31781;54.094;13.428;2023-09-07T08:14:29;102722.66;;;24.94;63.73
46045;BME280;31781;54.094;13.428;2023-09-07T08:16:32;102724.47;;;25.05;63.04
46045;BME280;31781;54.094;13.428;2023-09-07T08:18:34;102722.91;;;25.14;62.61
46045;BME280;31781;54.094;13.428;2023-09-07T08:20:37;102721.09;;;25.25;62.59
46045;BME280;31781;54.094;13.428;2023-09-07T08:22:41;102724.84;;;25.36;61.47
46045;BME280;31781;54.094;13.428;2023-09-07T08:24:46;102718.56;;;25.45;62.38
46045;BME280;31781;54.094;13.428;2023-09-07T08:26:47;102721.75;;;25.54;61.34
46045;BME280;31781;54.094;13.428;2023-09-07T08:28:49;102721.88;;;25.64;60.64
46045;BME280;31781;54.094;13.428;2023-09-07T08:30:52;102717.25;;;25.75;61.00
46045;BME280;31781;54.094;13.428;2023-09-07T08:33:04;102707.88;;;25.86;61.52
46045;BME280;31781;54.094;13.428;2023-09-07T08:35:08;102706.56;;;25.93;60.18
46045;BME280;31781;54.094;13.428;2023-09-07T08:37:10;102712.47;;;26.02;59.34
46045;BME280;31781;54.094;13.428;2023-09-07T08:39:11;102712.00;;;26.10;59.49
46045;BME280;31781;54.094;13.428;2023-09-07T08:41:14;102721.00;;;26.17;58.88
46045;BME280;31781;54.094;13.428;2023-09-07T08:43:15;102709.66;;;26.24;59.05
46045;BME280;31781;54.094;13.428;2023-09-07T08:45:21;102713.63;;;26.33;58.48
46045;BME280;31781;54.094;13.428;2023-09-07T08:47:23;102715.09;;;26.40;58.06
46045;BME280;31781;54.094;13.428;2023-09-07T08:49:26;102716.28;;;26.49;58.32
46045;BME280;31781;54.094;13.428;2023-09-07T08:51:28;102714.91;;;26.57;57.14
46045;BME280;31781;54.094;13.428;2023-09-07T08:53:31;102720.84;;;26.66;57.50
46045;BME280;31781;54.094;13.428;2023-09-07T08:55:34;102714.50;;;26.75;57.47
46045;BME280;31781;54.094;13.428;2023-09-07T08:57:35;102712.31;;;26.82;57.47
46045;BME280;31781;54.094;13.428;2023-09-07T08:59:37;102710.69;;;26.91;56.97
46045;BME280;31781;54.094;13.428;2023-09-07T09:01:39;102708.25;;;27.00;56.29
46045;BME280;31781;54.094;13.428;2023-09-07T09:03:43;102714.16;;;27.08;56.15
46045;BME280;31781;54.094;13.428;2023-09-07T09:05:50;102711.13;;;27.20;57.44
46045;BME280;31781;54.094;13.428;2023-09-07T09:08:01;102714.53;;;27.32;57.53
46045;BME280;31781;54.094;13.428;2023-09-07T09:10:03;102710.34;;;27.40;55.93
46045;BME280;31781;54.094;13.428;2023-09-07T09:12:09;102716.00;;;27.50;55.57
46045;BME280;31781;54.094;13.428;2023-09-07T09:14:16;102706.81;;;27.60;55.80
46045;BME280;31781;54.094;13.428;2023-09-07T09:16:18;102697.91;;;27.68;54.16
46045;BME280;31781;54.094;13.428;2023-09-07T09:18:20;102702.09;;;27.75;54.29
46045;BME280;31781;54.094;13.428;2023-09-07T09:20:23;102703.50;;;27.83;53.53
46045;BME280;31781;54.094;13.428;2023-09-07T09:22:26;102700.72;;;27.88;54.23
46045;BME280;31781;54.094;13.428;2023-09-07T09:24:31;102697.63;;;27.94;54.39
46045;BME280;31781;54.094;13.428;2023-09-07T09:26:33;102699.34;;;28.00;53.80
46045;BME280;31781;54.094;13.428;2023-09-07T09:28:35;102705.75;;;28.06;53.67
46045;BME280;31781;54.094;13.428;2023-09-07T09:30:37;102697.69;;;28.10;54.03
46045;BME280;31781;54.094;13.428;2023-09-07T09:32:39;102705.78;;;28.16;53.45
46045;BME280;31781;54.094;13.428;2023-09-07T09:34:43;102705.53;;;28.23;53.52
46045;BME280;31781;54.094;13.428;2023-09-07T09:36:49;102703.28;;;28.30;53.66
46045;BME280;31781;54.094;13.428;2023-09-07T09:38:53;102703.25;;;28.35;52.87
46045;BME280;31781;54.094;13.428;2023-09-07T09:40:55;102709.72;;;28.40;52.42
46045;BME280;31781;54.094;13.428;2023-09-07T09:42:57;102700.75;;;28.43;52.40
46045;BME280;31781;54.094;13.428;2023-09-07T09:45:01;102696.00;;;28.49;52.82
46045;BME280;31781;54.094;13.428;2023-09-07T09:47:06;102695.97;;;28.54;52.35
46045;BME280;31781;54.094;13.428;2023-09-07T09:49:08;102698.47;;;28.61;52.06
46045;BME280;31781;54.094;13.428;2023-09-07T09:51:10;102699.56;;;28.65;51.88
46045;BME280;31781;54.094;13.428;2023-09-07T09:53:12;102698.78;;;28.69;52.09
46045;BME280;31781;54.094;13.428;2023-09-07T09:55:15;102692.59;;;28.72;51.34
46045;BME280;31781;54.094;13.428;2023-09-07T09:57:17;102698.19;;;28.77;51.01
46045;BME280;31781;54.094;13.428;2023-09-07T09:59:19;102700.16;;;28.82;51.24
46045;BME280;31781;54.094;13.428;2023-09-07T10:01:25;102698.72;;;28.84;52.55
46045;BME280;31781;54.094;13.428;2023-09-07T10:03:29;102698.16;;;28.87;51.05
46045;BME280;31781;54.094;13.428;2023-09-07T10:05:33;102694.50;;;28.92;50.83
46045;BME280;31781;54.094;13.428;2023-09-07T10:07:47;102690.53;;;28.98;52.25
46045;BME280;31781;54.094;13.428;2023-09-07T10:09:49;102688.31;;;29.00;50.59
46045;BME280;31781;54.094;13.428;2023-09-07T10:11:53;102689.69;;;29.02;50.76
46045;BME280;31781;54.094;13.428;2023-09-07T10:13:58;102688.84;;;29.07;51.04
46045;BME280;31781;54.094;13.428;2023-09-07T10:16:00;102681.53;;;29.11;50.51
46045;BME280;31781;54.094;13.428;2023-09-07T10:18:06;102689.91;;;29.16;50.46
46045;BME280;31781;54.094;13.428;2023-09-07T10:20:09;102679.81;;;29.20;49.39
46045;BME280;31781;54.094;13.428;2023-09-07T10:22:21;102686.81;;;29.28;50.84
46045;BME280;31781;54.094;13.428;2023-09-07T10:24:23;102689.34;;;29.29;49.04
46045;BME280;31781;54.094;13.428;2023-09-07T10:26:25;102685.69;;;29.34;49.67
46045;BME280;31781;54.094;13.428;2023-09-07T10:28:28;102685.09;;;29.37;48.89
46045;BME280;31781;54.094;13.428;2023-09-07T10:30:30;102685.03;;;29.42;49.66
46045;BME280;31781;54.094;13.428;2023-09-07T10:32:37;102685.31;;;29.45;50.94
46045;BME280;31781;54.094;13.428;2023-09-07T10:34:40;102686.13;;;29.51;49.95
46045;BME280;31781;54.094;13.428;2023-09-07T10:36:42;102678.50;;;29.57;49.26
46045;BME280;31781;54.094;13.428;2023-09-07T10:38:44;102674.31;;;29.59;48.72
46045;BME280;31781;54.094;13.428;2023-09-07T10:40:47;102681.28;;;29.62;48.45
46045;BME280;31781;54.094;13.428;2023-09-07T10:42:49;102677.31;;;29.68;48.77
46045;BME280;31781;54.094;13.428;2023-09-07T10:44:52;102682.06;;;29.72;49.00
46045;BME280;31781;54.094;13.428;2023-09-07T10:46:54;102678.91;;;29.79;48.22
46045;BME280;31781;54.094;13.428;2023-09-07T10:48:56;102676.34;;;29.82;48.34
46045;BME280;31781;54.094;13.428;2023-09-07T10:50:58;102677.19;;;29.88;48.24
46045;BME280;31781;54.094;13.428;2023-09-07T10:53:01;102669.03;;;29.91;48.35
46045;BME280;31781;54.094;13.428;2023-09-07T10:55:04;102674.06;;;29.94;47.82
46045;BME280;31781;54.094;13.428;2023-09-07T10:57:11;102668.41;;;30.00;49.26
46045;BME280;31781;54.094;13.428;2023-09-07T10:59:13;102672.59;;;30.02;47.27
46045;BME280;31781;54.094;13.428;2023-09-07T11:01:16;102667.53;;;30.04;47.57
46045;BME280;31781;54.094;13.428;2023-09-07T11:03:18;102664.97;;;30.08;47.59
46045;BME280;31781;54.094;13.428;2023-09-07T11:05:20;102668.31;;;30.10;47.14
46045;BME280;31781;54.094;13.428;2023-09-07T11:07:22;102667.19;;;30.11;47.00
46045;BME280;31781;54.094;13.428;2023-09-07T11:09:24;102665.75;;;30.13;46.91
46045;BME280;31781;54.094;13.428;2023-09-07T11:11:26;102669.94;;;30.16;47.34
46045;BME280;31781;54.094;13.428;2023-09-07T11:13:32;102675.53;;;30.21;47.88
46045;BME280;31781;54.094;13.428;2023-09-07T11:15:35;102670.16;;;30.24;46.86
46045;BME280;31781;54.094;13.428;2023-09-07T11:17:39;102663.41;;;30.25;47.39
46045;BME280;31781;54.094;13.428;2023-09-07T11:19:41;102661.13;;;30.27;46.51
46045;BME280;31781;54.094;13.428;2023-09-07T11:21:43;102654.09;;;30.30;47.01
46045;BME280;31781;54.094;13.428;2023-09-07T11:23:45;102647.34;;;30.31;46.66
46045;BME280;31781;54.094;13.428;2023-09-07T11:25:48;102652.38;;;30.34;46.77
46045;BME280;31781;54.094;13.428;2023-09-07T11:27:53;102659.38;;;30.36;46.54
46045;BME280;31781;54.094;13.428;2023-09-07T11:29:55;102659.91;;;30.38;47.26
46045;BME280;31781;54.094;13.428;2023-09-07T11:32:06;102654.56;;;30.42;48.03
46045;BME280;31781;54.094;13.428;2023-09-07T11:34:13;102653.44;;;30.43;47.61
46045;BME280;31781;54.094;13.428;2023-09-07T11:36:15;102651.13;;;30.45;46.76
46045;BME280;31781;54.094;13.428;2023-09-07T11:38:18;102644.13;;;30.48;46.60
46045;BME280;31781;54.094;13.428;2023-09-07T11:40:20;102656.44;;;30.52;46.17
46045;BME280;31781;54.094;13.428;2023-09-07T11:42:21;102648.84;;;30.52;45.89
46045;BME280;31781;54.094;13.428;2023-09-07T11:44:23;102652.47;;;30.53;46.42
46045;BME280;31781;54.094;13.428;2023-09-07T11:46:25;102651.34;;;30.54;46.27
46045;BME280;31781;54.094;13.428;2023-09-07T11:48:28;102641.22;;;30.53;46.37
46045;BME280;31781;54.094;13.428;2023-09-07T11:50:33;102638.72;;;30.51;46.01
46045;BME280;31781;54.094;13.428;2023-09-07T11:52:37;102636.22;;;30.50;47.14
46045;BME280;31781;54.094;13.428;2023-09-07T11:54:39;102632.88;;;30.48;46.34
46045;BME280;31781;54.094;13.428;2023-09-07T11:56:41;102638.50;;;30.48;46.06
46045;BME280;31781;54.094;13.428;2023-09-07T11:58:42;102635.69;;;30.48;46.17
46045;BME280;31781;54.094;13.428;2023-09-07T12:00:46;102637.66;;;30.47;47.11
46045;BME280;31781;54.094;13.428;2023-09-07T12:02:47;102637.38;;;30.49;46.41
46045;BME280;31781;54.094;13.428;2023-09-07T12:04:49;102638.41;;;30.53;46.25
46045;BME280;31781;54.094;13.428;2023-09-07T12:06:53;102642.38;;;30.52;46.20
46045;BME280;31781;54.094;13.428;2023-09-07T12:08:58;102642.06;;;30.53;46.93
46045;BME280;31781;54.094;13.428;2023-09-07T12:11:00;102636.44;;;30.53;46.29